createdAt,value
2023-04-06T00:04:29.532Z,-2.40
2023-04-06T00:09:32.680Z,-2.32
2023-04-06T00:14:37.288Z,-2.41
2023-04-06T00:19:40.537Z,-2.42
2023-04-06T00:24:43.856Z,-2.48
2023-04-06T00:29:48.485Z,-2.54
2023-04-06T00:34:51.843Z,-2.52
2023-04-06T00:39:54.988Z,-2.59
2023-04-06T00:45:02.453Z,-2.66
2023-04-06T00:50:06.522Z,-2.71
2023-04-06T00:55:11.304Z,-2.80
2023-04-06T01:00:20.605Z,-2.87
2023-04-06T01:05:28.107Z,-2.94
2023-04-06T01:10:34.730Z,-2.95
2023-04-06T01:15:48.603Z,-3.00
2023-04-06T01:20:57.655Z,-2.99
2023-04-06T01:26:04.475Z,-3.07
2023-04-06T01:31:09.822Z,-3.15
2023-04-06T01:36:21.275Z,-3.13
2023-04-06T01:41:32.594Z,-3.16
2023-04-06T01:46:36.017Z,-3.17
2023-04-06T01:51:41.787Z,-3.22
2023-04-06T01:56:51.550Z,-3.26
2023-04-06T02:02:04.062Z,-3.33
2023-04-06T02:07:08.958Z,-3.36
2023-04-06T02:12:13.737Z,-3.40
2023-04-06T02:17:17.278Z,-3.50
2023-04-06T02:22:20.918Z,-3.45
2023-04-06T02:27:25.632Z,-3.52
2023-04-06T02:32:29.006Z,-3.54
2023-04-06T02:37:33.250Z,-3.61
2023-04-06T02:42:37.840Z,-3.57
2023-04-06T02:47:42.335Z,-3.67
2023-04-06T02:52:46.834Z,-3.61
2023-04-06T02:57:51.808Z,-3.70
2023-04-06T03:02:58.718Z,-3.80
2023-04-06T03:08:03.673Z,-3.82
2023-04-06T03:13:18.715Z,-3.77
2023-04-06T03:18:27.859Z,-3.94
2023-04-06T03:23:33.174Z,-4.01
2023-04-06T03:28:39.983Z,-3.90
2023-04-06T03:33:44.120Z,-3.92
2023-04-06T03:38:54.639Z,-3.86
2023-04-06T03:43:59.526Z,-3.99
2023-04-06T03:49:03.267Z,-3.94
2023-04-06T03:54:07.228Z,-3.94
2023-04-06T03:59:12.034Z,-3.99
2023-04-06T04:04:15.427Z,-4.04
2023-04-06T04:09:18.793Z,-4.11
2023-04-06T04:14:23.586Z,-4.13
2023-04-06T04:19:27.304Z,-4.08
2023-04-06T04:24:32.663Z,-4.05
2023-04-06T04:29:37.595Z,-4.17
2023-04-06T04:34:47.527Z,-4.13
2023-04-06T04:40:02.175Z,-4.11
2023-04-06T04:45:11.236Z,-4.20
2023-04-06T04:50:16.247Z,-4.15
2023-04-06T04:55:22.289Z,-4.04
2023-04-06T05:00:31.881Z,-4.08
2023-04-06T05:05:36.896Z,-4.00
2023-04-06T05:10:42.304Z,-3.84
2023-04-06T05:15:47.334Z,-3.71
2023-04-06T05:21:00.031Z,-3.67
2023-04-06T05:26:14.899Z,-3.58
2023-04-06T05:31:19.974Z,-3.49
2023-04-06T05:36:27.330Z,-3.52
2023-04-06T05:41:30.697Z,-3.24
2023-04-06T05:46:35.709Z,-3.23
2023-04-06T05:51:40.632Z,-3.00
2023-04-06T05:56:44.576Z,-2.80
2023-04-06T06:01:50.863Z,-2.64
2023-04-06T06:06:56.000Z,-2.64
2023-04-06T06:12:05.231Z,-2.27
2023-04-06T06:17:10.655Z,-1.24
2023-04-06T06:22:13.984Z,-0.55
2023-04-06T06:27:21.540Z,-0.33
2023-04-06T06:32:27.256Z,0.68
2023-04-06T06:37:31.677Z,1.27
2023-04-06T06:42:36.822Z,2.25
2023-04-06T06:47:52.198Z,2.97
2023-04-06T06:52:57.241Z,3.69
2023-04-06T06:58:00.503Z,4.85
2023-04-06T07:03:05.636Z,5.58
2023-04-06T07:08:09.140Z,6.37
2023-04-06T07:13:13.378Z,7.12
2023-04-06T07:18:18.516Z,7.87
2023-04-06T07:23:22.608Z,8.25
2023-04-06T07:28:25.837Z,8.62
2023-04-06T07:33:32.482Z,8.50
2023-04-06T07:38:36.461Z,9.15
2023-04-06T07:43:41.094Z,9.13
2023-04-06T07:48:46.409Z,9.01
2023-04-06T07:53:50.473Z,9.72
2023-04-06T07:58:56.633Z,9.37
2023-04-06T08:04:03.479Z,9.28
2023-04-06T08:09:06.900Z,9.72
2023-04-06T08:14:10.278Z,10.12
2023-04-06T08:19:18.185Z,10.20
2023-04-06T08:24:21.457Z,10.66
2023-04-06T08:29:24.708Z,10.21
2023-04-06T08:34:29.442Z,10.16
2023-04-06T08:39:34.753Z,10.83
2023-04-06T08:44:38.907Z,10.62
2023-04-06T08:49:45.716Z,10.74
2023-04-06T08:54:49.843Z,11.03
2023-04-06T08:59:53.731Z,11.06
2023-04-06T09:04:59.787Z,10.05
2023-04-06T09:10:03.305Z,10.71
2023-04-06T09:15:07.538Z,10.98
2023-04-06T09:20:14.161Z,11.45
2023-04-06T09:25:22.412Z,11.44
2023-04-06T09:30:26.030Z,11.54
2023-04-06T09:35:32.409Z,11.93
2023-04-06T09:40:35.650Z,11.51
2023-04-06T09:45:39.221Z,11.89
2023-04-06T09:50:44.130Z,12.12
2023-04-06T09:55:48.540Z,11.55
2023-04-06T10:01:00.726Z,12.00
2023-04-06T10:06:09.474Z,11.63
2023-04-06T10:11:13.146Z,11.79
2023-04-06T10:16:16.793Z,11.79
2023-04-06T10:21:25.968Z,12.27
2023-04-06T10:26:29.550Z,12.46
2023-04-06T10:31:33.324Z,12.19
2023-04-06T10:36:38.980Z,12.65
2023-04-06T10:41:45.823Z,12.56
2023-04-06T10:46:55.949Z,13.04
2023-04-06T10:52:01.213Z,12.67
2023-04-06T10:57:04.587Z,12.75
2023-04-06T11:02:07.898Z,12.66
2023-04-06T11:07:12.722Z,12.50
2023-04-06T11:12:23.319Z,12.77
2023-04-06T11:17:30.233Z,12.49
2023-04-06T11:22:35.929Z,12.66
2023-04-06T11:27:39.970Z,12.57
2023-04-06T11:32:44.524Z,12.89
2023-04-06T11:37:50.437Z,13.36
2023-04-06T11:42:57.116Z,13.57
2023-04-06T11:48:01.684Z,13.74
2023-04-06T11:53:06.362Z,13.42
2023-04-06T11:58:09.675Z,13.22
2023-04-06T12:03:13.238Z,12.44
2023-04-06T12:08:18.085Z,12.94
2023-04-06T12:13:21.392Z,13.38
2023-04-06T12:18:24.649Z,13.42
2023-04-06T12:23:29.180Z,12.91
2023-04-06T12:28:32.295Z,13.07
2023-04-06T12:33:35.522Z,13.92
2023-04-06T12:38:41.356Z,14.32
2023-04-06T12:43:45.321Z,13.15
2023-04-06T12:48:49.125Z,13.81
2023-04-06T12:53:54.065Z,13.27
2023-04-06T12:58:57.531Z,14.13
2023-04-06T13:04:01.134Z,13.05
2023-04-06T13:09:06.653Z,13.57
2023-04-06T13:14:09.865Z,13.72
2023-04-06T13:19:13.078Z,13.88
2023-04-06T13:24:18.285Z,14.05
2023-04-06T13:29:21.858Z,13.70
2023-04-06T13:34:25.257Z,13.67
2023-04-06T13:39:29.921Z,13.29
2023-04-06T13:44:33.890Z,13.15
2023-04-06T13:49:37.986Z,12.89
2023-04-06T13:54:43.068Z,13.07
2023-04-06T13:59:46.327Z,13.63
2023-04-06T14:04:49.472Z,13.43
2023-04-06T14:09:54.107Z,12.68
2023-04-06T14:14:57.308Z,13.27
2023-04-06T14:20:01.055Z,12.02
2023-04-06T14:25:06.128Z,12.75
2023-04-06T14:30:10.519Z,13.08
2023-04-06T14:35:14.038Z,12.21
2023-04-06T14:40:18.986Z,13.07
2023-04-06T14:45:22.816Z,12.89
2023-04-06T14:50:26.384Z,13.07
2023-04-06T14:55:31.073Z,13.32
2023-04-06T15:00:34.261Z,12.31
2023-04-06T15:05:37.454Z,12.33
2023-04-06T15:10:41.993Z,12.83
2023-04-06T15:15:45.094Z,12.74
2023-04-06T15:20:48.780Z,12.66
2023-04-06T15:25:54.094Z,12.65
2023-04-06T15:30:58.491Z,12.77
2023-04-06T15:36:07.148Z,12.33
2023-04-06T15:41:14.254Z,12.67
2023-04-06T15:46:17.292Z,12.59
2023-04-06T15:51:20.781Z,12.17
2023-04-06T15:56:25.509Z,12.53
2023-04-06T16:01:28.878Z,12.08
2023-04-06T16:06:32.604Z,12.24
2023-04-06T16:11:37.758Z,11.90
2023-04-06T16:16:43.405Z,11.72
2023-04-06T16:21:47.595Z,11.11
2023-04-06T16:26:52.392Z,10.93
2023-04-06T16:31:56.410Z,11.22
2023-04-06T16:36:59.663Z,11.12
2023-04-06T16:42:04.289Z,10.38
2023-04-06T16:47:07.747Z,10.05
2023-04-06T16:52:11.232Z,9.72
2023-04-06T16:57:16.107Z,9.46
2023-04-06T17:02:19.390Z,9.26
2023-04-06T17:07:26.662Z,8.93
2023-04-06T17:12:31.413Z,8.87
2023-04-06T17:17:34.710Z,8.77
2023-04-06T17:22:37.851Z,8.56
2023-04-06T17:27:42.577Z,8.02
2023-04-06T17:32:46.304Z,7.68
2023-04-06T17:37:49.542Z,7.44
2023-04-06T17:42:54.051Z,6.91
2023-04-06T17:47:57.137Z,6.66
2023-04-06T17:53:00.312Z,6.16
2023-04-06T17:58:06.028Z,6.06
2023-04-06T18:03:09.147Z,5.56
2023-04-06T18:08:12.762Z,5.47
2023-04-06T18:13:17.502Z,5.32
2023-04-06T18:18:20.748Z,4.82
2023-04-06T18:23:24.171Z,4.79
2023-04-06T18:28:28.927Z,4.57
2023-04-06T18:33:32.484Z,4.42
2023-04-06T18:38:35.565Z,4.21
2023-04-06T18:43:40.338Z,4.07
2023-04-06T18:48:44.346Z,3.96
2023-04-06T18:53:47.866Z,3.75
2023-04-06T18:58:52.447Z,3.57
2023-04-06T19:03:56.649Z,3.53
2023-04-06T19:09:02.367Z,3.31
2023-04-06T19:14:07.379Z,3.12
2023-04-06T19:19:10.936Z,2.90
2023-04-06T19:24:14.724Z,2.89
2023-04-06T19:29:19.506Z,2.62
2023-04-06T19:34:24.047Z,2.53
2023-04-06T19:39:27.947Z,2.44
2023-04-06T19:44:33.506Z,2.34
2023-04-06T19:49:40.972Z,2.23
2023-04-06T19:54:46.937Z,2.27
2023-04-06T19:59:51.549Z,2.24
2023-04-06T20:04:54.647Z,2.25
2023-04-06T20:09:57.801Z,2.26
2023-04-06T20:15:02.477Z,2.00
2023-04-06T20:20:09.617Z,2.00
2023-04-06T20:25:13.165Z,1.77
2023-04-06T20:30:18.009Z,1.86
2023-04-06T20:35:21.353Z,1.92
2023-04-06T20:40:25.951Z,1.84
2023-04-06T20:45:30.923Z,1.76
2023-04-06T20:50:36.351Z,1.66
2023-04-06T20:55:41.988Z,1.57
2023-04-06T21:00:46.671Z,1.60
2023-04-06T21:05:53.308Z,1.59
2023-04-06T21:10:57.093Z,1.59
2023-04-06T21:16:02.194Z,1.24
2023-04-06T21:21:05.880Z,1.29
2023-04-06T21:26:09.078Z,1.10
2023-04-06T21:31:16.449Z,1.06
2023-04-06T21:36:19.694Z,1.00
2023-04-06T21:41:22.938Z,0.86
2023-04-06T21:46:28.053Z,0.80
2023-04-06T21:51:32.326Z,0.72
2023-04-06T21:56:35.605Z,0.29
2023-04-06T22:01:40.224Z,0.46
2023-04-06T22:06:43.603Z,0.46
2023-04-06T22:11:46.860Z,0.34
2023-04-06T22:16:51.440Z,0.35
2023-04-06T22:21:54.850Z,0.19
2023-04-06T22:26:58.406Z,0.18
2023-04-06T22:32:03.172Z,-0.09
2023-04-06T22:37:06.350Z,-0.03
2023-04-06T22:42:09.419Z,0.09
2023-04-06T22:47:14.466Z,0.06
2023-04-06T22:52:17.834Z,0.02
2023-04-06T22:57:22.581Z,-0.05
2023-04-06T23:02:27.544Z,-0.15
2023-04-06T23:07:32.692Z,-0.16
2023-04-06T23:12:36.037Z,-0.23
2023-04-06T23:17:41.944Z,-0.22
2023-04-06T23:22:45.138Z,-0.34
2023-04-06T23:27:48.293Z,-0.42
2023-04-06T23:32:52.820Z,-0.36
2023-04-06T23:37:56.006Z,-0.45
2023-04-06T23:42:59.113Z,-0.44
2023-04-06T23:48:03.850Z,-0.48
2023-04-06T23:53:07.095Z,-0.56
2023-04-06T23:58:10.409Z,-0.56
